createdAt,value
2022-09-24T00:01:43.191Z,8.13
2022-09-24T00:04:13.189Z,7.95
2022-09-24T00:06:43.141Z,8.60
2022-09-24T00:09:11.688Z,8.35
2022-09-24T00:11:40.343Z,8.73
2022-09-24T00:14:08.735Z,8.80
2022-09-24T00:16:38.813Z,9.60
2022-09-24T00:19:08.081Z,9.43
2022-09-24T00:21:37.658Z,9.60
2022-09-24T00:24:08.117Z,9.55
2022-09-24T00:26:50.637Z,10.05
2022-09-24T00:29:20.757Z,9.57
2022-09-24T00:31:49.400Z,9.82
2022-09-24T00:34:19.415Z,9.35
2022-09-24T00:36:48.542Z,9.55
2022-09-24T00:39:16.801Z,9.88
2022-09-24T00:41:49.100Z,9.63
2022-09-24T00:44:54.376Z,8.10
2022-09-24T00:47:36.143Z,9.05
2022-09-24T00:50:25.116Z,8.35
2022-09-24T00:52:55.422Z,8.82
2022-09-24T00:55:24.961Z,8.52
2022-09-24T00:57:55.133Z,8.48
2022-09-24T01:00:23.088Z,8.50
2022-09-24T01:02:56.148Z,8.00
2022-09-24T01:05:25.409Z,7.88
2022-09-24T01:07:53.310Z,8.45
2022-09-24T01:10:40.240Z,9.20
2022-09-24T01:13:18.440Z,8.80
2022-09-24T01:15:53.890Z,8.68
2022-09-24T01:18:30.341Z,8.55
2022-09-24T01:21:17.374Z,8.43
2022-09-24T01:23:57.829Z,8.30
2022-09-24T01:26:42.408Z,8.57
2022-09-24T01:29:42.228Z,8.90
2022-09-24T01:32:17.960Z,8.48
2022-09-24T01:34:50.904Z,8.32
2022-09-24T01:37:22.425Z,7.25
2022-09-24T01:39:53.434Z,7.75
2022-09-24T01:42:23.190Z,7.18
2022-09-24T01:44:52.744Z,7.25
2022-09-24T01:47:29.948Z,8.13
2022-09-24T01:50:03.056Z,8.02
2022-09-24T01:52:35.641Z,8.38
2022-09-24T01:55:06.952Z,8.70
2022-09-24T01:57:40.236Z,8.40
2022-09-24T02:00:12.884Z,8.98
2022-09-24T02:02:46.475Z,8.98
2022-09-24T02:05:19.812Z,9.02
2022-09-24T02:07:52.793Z,9.02
2022-09-24T02:10:22.164Z,9.07
2022-09-24T02:12:56.594Z,9.02
2022-09-24T02:15:32.621Z,9.02
2022-09-24T02:18:07.005Z,8.13
2022-09-24T02:20:37.244Z,10.10
2022-09-24T02:23:07.397Z,9.57
2022-09-24T02:25:43.162Z,9.07
2022-09-24T02:28:11.238Z,9.38
2022-09-24T02:30:45.355Z,8.80
2022-09-24T02:33:29.106Z,9.00
2022-09-24T02:35:57.587Z,9.18
2022-09-24T02:38:25.543Z,9.02
2022-09-24T02:40:55.007Z,7.90
2022-09-24T02:43:22.893Z,8.15
2022-09-24T02:45:52.068Z,7.78
2022-09-24T02:48:19.850Z,7.80
2022-09-24T02:50:47.714Z,8.68
2022-09-24T02:53:15.521Z,8.13
2022-09-24T02:55:43.386Z,8.50
2022-09-24T02:58:11.171Z,8.85
2022-09-24T03:00:39.413Z,8.75
2022-09-24T03:03:08.664Z,8.30
2022-09-24T03:05:36.481Z,8.18
2022-09-24T03:08:04.325Z,8.20
2022-09-24T03:10:32.117Z,7.95
2022-09-24T03:13:00.194Z,7.53
2022-09-24T03:15:27.997Z,7.93
2022-09-24T03:17:56.145Z,8.20
2022-09-24T03:20:25.401Z,7.80
2022-09-24T03:22:53.308Z,8.32
2022-09-24T03:25:21.601Z,8.15
2022-09-24T03:27:49.444Z,8.90
2022-09-24T03:30:34.600Z,7.80
2022-09-24T03:33:02.445Z,8.75
2022-09-24T03:35:31.593Z,7.95
2022-09-24T03:37:59.423Z,9.02
2022-09-24T03:40:27.323Z,8.25
2022-09-24T03:42:55.173Z,8.70
2022-09-24T03:45:22.952Z,8.30
2022-09-24T03:47:50.738Z,7.70
2022-09-24T03:50:18.697Z,8.88
2022-09-24T03:52:47.983Z,7.90
2022-09-24T03:55:15.948Z,8.82
2022-09-24T03:57:43.789Z,7.95
2022-09-24T04:00:12.854Z,9.68
2022-09-24T04:02:41.237Z,8.52
2022-09-24T04:05:09.808Z,8.82
2022-09-24T04:07:37.645Z,9.82
2022-09-24T04:10:09.017Z,9.65
2022-09-24T04:12:36.842Z,9.85
2022-09-24T04:15:05.374Z,9.32
2022-09-24T04:17:33.265Z,9.32
2022-09-24T04:20:01.747Z,10.20
2022-09-24T04:22:29.722Z,9.38
2022-09-24T04:24:57.982Z,9.55
2022-09-24T04:27:27.299Z,8.65
2022-09-24T04:29:55.329Z,9.90
2022-09-24T04:32:23.177Z,10.32
2022-09-24T04:34:51.085Z,10.80
2022-09-24T04:37:19.013Z,9.57
2022-09-24T04:39:46.868Z,10.25
2022-09-24T04:42:18.169Z,10.07
2022-09-24T04:44:49.368Z,10.95
2022-09-24T04:47:18.996Z,10.20
2022-09-24T04:49:46.933Z,9.65
2022-09-24T04:52:16.154Z,11.32
2022-09-24T04:54:46.706Z,11.07
2022-09-24T04:57:15.063Z,10.82
2022-09-24T04:59:43.032Z,10.20
2022-09-24T05:02:12.517Z,10.93
2022-09-24T05:04:40.432Z,10.07
2022-09-24T05:07:08.289Z,10.70
2022-09-24T05:09:36.155Z,9.25
2022-09-24T05:12:05.047Z,10.98
2022-09-24T05:14:32.984Z,11.07
2022-09-24T05:17:00.804Z,9.85
2022-09-24T05:19:30.051Z,10.85
2022-09-24T05:21:57.899Z,10.35
2022-09-24T05:24:25.691Z,10.70
2022-09-24T05:27:11.918Z,9.57
2022-09-24T05:29:40.560Z,10.48
2022-09-24T05:32:10.433Z,10.40
2022-09-24T05:34:41.385Z,11.13
2022-09-24T05:37:09.188Z,10.70
2022-09-24T05:39:37.090Z,10.80
2022-09-24T05:42:05.008Z,11.38
2022-09-24T05:44:33.276Z,11.35
2022-09-24T05:47:01.243Z,11.07
2022-09-24T05:49:29.080Z,11.68
2022-09-24T05:51:58.248Z,10.98
2022-09-24T05:54:26.013Z,11.35
2022-09-24T05:56:54.020Z,11.50
2022-09-24T05:59:21.806Z,11.73
2022-09-24T06:01:49.922Z,10.93
2022-09-24T06:04:17.913Z,11.90
2022-09-24T06:06:45.687Z,11.00
2022-09-24T06:09:15.051Z,11.38
2022-09-24T06:11:43.864Z,11.55
2022-09-24T06:14:13.160Z,11.95
2022-09-24T06:16:41.063Z,12.35
2022-09-24T06:19:09.001Z,12.88
2022-09-24T06:21:36.835Z,15.13
2022-09-24T06:24:04.942Z,14.05
2022-09-24T06:26:34.276Z,14.40
2022-09-24T06:29:09.827Z,15.75
2022-09-24T06:31:37.866Z,15.60
2022-09-24T06:34:05.766Z,14.98
2022-09-24T06:36:33.564Z,14.45
2022-09-24T06:39:01.506Z,13.60
2022-09-24T06:41:29.438Z,12.55
2022-09-24T06:43:58.695Z,13.73
2022-09-24T06:46:27.027Z,14.18
2022-09-24T06:48:55.508Z,13.75
2022-09-24T06:51:23.556Z,12.73
2022-09-24T06:53:52.370Z,12.45
2022-09-24T06:56:20.203Z,12.90
2022-09-24T06:58:48.090Z,12.10
2022-09-24T07:01:17.362Z,12.77
2022-09-24T07:03:45.779Z,13.27
2022-09-24T07:06:13.624Z,12.02
2022-09-24T07:08:41.539Z,12.40
2022-09-24T07:11:09.459Z,11.85
2022-09-24T07:13:37.297Z,11.32
2022-09-24T07:16:05.253Z,10.15
2022-09-24T07:18:34.523Z,10.75
2022-09-24T07:21:02.416Z,10.00
2022-09-24T07:23:30.357Z,9.50
2022-09-24T07:25:58.530Z,9.35
2022-09-24T07:28:26.832Z,8.60
2022-09-24T07:30:59.326Z,9.30
2022-09-24T07:33:27.354Z,8.38
2022-09-24T07:35:56.611Z,8.25
2022-09-24T07:38:24.825Z,8.48
2022-09-24T07:40:54.320Z,8.82
2022-09-24T07:43:22.709Z,8.60
2022-09-24T07:45:50.560Z,8.60
2022-09-24T07:48:18.388Z,9.05
2022-09-24T07:50:46.210Z,8.68
2022-09-24T07:53:16.916Z,9.23
2022-09-24T07:55:45.622Z,9.07
2022-09-24T07:58:15.020Z,9.68
2022-09-24T08:00:43.214Z,8.32
2022-09-24T08:03:11.229Z,9.10
2022-09-24T08:05:45.318Z,8.00
2022-09-24T08:08:15.996Z,8.73
2022-09-24T08:10:44.429Z,9.38
2022-09-24T08:13:12.325Z,8.73
2022-09-24T08:15:40.394Z,8.43
2022-09-24T08:18:08.713Z,8.48
2022-09-24T08:20:38.009Z,9.90
2022-09-24T08:23:07.197Z,8.43
2022-09-24T08:25:36.470Z,8.98
2022-09-24T08:28:04.661Z,8.82
2022-09-24T08:30:33.418Z,9.18
2022-09-24T08:33:01.599Z,8.32
2022-09-24T08:35:29.409Z,8.45
2022-09-24T08:38:01.326Z,8.55
2022-09-24T08:40:32.812Z,10.35
2022-09-24T08:43:15.385Z,8.95
2022-09-24T08:46:07.236Z,8.38
2022-09-24T08:48:40.233Z,8.60
2022-09-24T08:51:14.539Z,9.20
2022-09-24T08:53:49.122Z,9.00
2022-09-24T08:56:22.137Z,8.20
2022-09-24T08:58:55.422Z,8.68
2022-09-24T09:01:32.712Z,8.20
2022-09-24T09:04:06.231Z,7.85
2022-09-24T09:06:53.923Z,8.40
2022-09-24T09:09:25.057Z,8.18
2022-09-24T09:12:00.250Z,8.43
2022-09-24T09:14:42.737Z,8.68
2022-09-24T09:17:21.129Z,9.07
2022-09-24T09:19:56.259Z,8.32
2022-09-24T09:22:29.170Z,8.40
2022-09-24T09:25:04.184Z,8.05
2022-09-24T09:27:32.924Z,8.55
2022-09-24T09:30:10.410Z,9.25
2022-09-24T09:32:56.924Z,8.50
2022-09-24T09:35:30.910Z,8.52
2022-09-24T09:38:10.379Z,7.93
2022-09-24T09:40:43.591Z,7.70
2022-09-24T09:43:14.536Z,7.80
2022-09-24T09:45:53.225Z,8.25
2022-09-24T09:48:23.448Z,7.63
2022-09-24T09:50:54.974Z,7.80
2022-09-24T09:53:25.245Z,7.95
2022-09-24T09:55:55.353Z,7.40
2022-09-24T09:58:25.688Z,7.18
2022-09-24T10:01:05.272Z,7.63
2022-09-24T10:03:35.567Z,7.82
2022-09-24T10:06:06.428Z,7.82
2022-09-24T10:08:34.702Z,7.43
2022-09-24T10:11:03.513Z,7.32
2022-09-24T10:13:32.340Z,7.30
2022-09-24T10:16:04.825Z,7.25
2022-09-24T10:18:34.923Z,7.53
2022-09-24T10:21:05.831Z,7.22
2022-09-24T10:23:36.757Z,7.35
2022-09-24T10:26:05.759Z,6.90
2022-09-24T10:28:53.807Z,6.78
2022-09-24T10:31:25.249Z,6.68
2022-09-24T10:33:56.008Z,7.00
2022-09-24T10:36:25.612Z,6.38
2022-09-24T10:39:04.335Z,6.75
2022-09-24T10:41:33.181Z,6.78
2022-09-24T10:44:05.462Z,6.65
2022-09-24T10:46:55.661Z,6.68
2022-09-24T10:49:36.703Z,6.53
2022-09-24T10:52:19.810Z,6.45
2022-09-24T10:54:58.797Z,6.80
2022-09-24T10:57:32.364Z,8.88
2022-09-24T11:00:10.644Z,8.35
2022-09-24T11:03:00.375Z,12.75
2022-09-24T11:05:34.286Z,15.82
2022-09-24T11:08:21.659Z,6.90
2022-09-24T11:11:03.061Z,10.32
2022-09-24T11:13:41.111Z,5.97
2022-09-24T11:16:41.267Z,5.60
2022-09-24T11:19:22.137Z,5.53
2022-09-24T11:22:04.282Z,5.25
2022-09-24T11:24:53.421Z,5.90
2022-09-24T11:27:49.352Z,5.55
2022-09-24T11:30:20.264Z,5.32
2022-09-24T11:33:09.444Z,5.47
2022-09-24T11:36:01.079Z,4.85
2022-09-24T11:38:43.574Z,5.40
2022-09-24T11:41:24.162Z,5.38
2022-09-24T11:44:13.575Z,5.50
2022-09-24T11:46:51.919Z,4.70
2022-09-24T11:49:50.887Z,5.13
2022-09-24T11:52:29.043Z,4.85
2022-09-24T11:55:03.449Z,5.15
2022-09-24T11:57:34.700Z,5.45
2022-09-24T12:00:08.475Z,5.18
2022-09-24T12:02:42.860Z,5.70
2022-09-24T12:05:19.546Z,5.03
2022-09-24T12:07:52.997Z,5.35
2022-09-24T12:10:30.081Z,5.57
2022-09-24T12:13:04.378Z,5.35
2022-09-24T12:15:47.890Z,5.72
2022-09-24T12:18:20.445Z,5.38
2022-09-24T12:20:53.963Z,5.30
2022-09-24T12:23:29.395Z,5.53
2022-09-24T12:25:59.933Z,6.07
2022-09-24T12:28:54.387Z,5.13
2022-09-24T12:31:47.557Z,5.70
2022-09-24T12:34:24.962Z,5.45
2022-09-24T12:37:01.036Z,4.80
2022-09-24T12:39:37.968Z,4.30
2022-09-24T12:42:09.477Z,4.15
2022-09-24T12:44:44.666Z,3.72
2022-09-24T12:47:21.315Z,4.07
2022-09-24T12:49:54.906Z,4.07
2022-09-24T12:52:28.846Z,4.22
2022-09-24T12:55:02.361Z,3.97
2022-09-24T12:57:35.831Z,3.67
2022-09-24T13:00:07.040Z,3.47
2022-09-24T13:02:47.424Z,3.70
2022-09-24T13:05:20.925Z,3.67
2022-09-24T13:07:59.007Z,3.45
2022-09-24T13:10:31.377Z,4.57
2022-09-24T13:13:01.133Z,3.80
2022-09-24T13:15:35.596Z,3.65
2022-09-24T13:18:22.523Z,3.92
2022-09-24T13:21:01.494Z,3.50
2022-09-24T13:23:47.114Z,4.60
2022-09-24T13:26:30.042Z,3.30
2022-09-24T13:29:00.739Z,3.80
2022-09-24T13:31:38.637Z,3.85
2022-09-24T13:34:17.244Z,4.20
2022-09-24T13:36:49.606Z,4.10
2022-09-24T13:39:21.908Z,3.80
2022-09-24T13:41:59.019Z,3.15
2022-09-24T13:44:32.591Z,3.33
2022-09-24T13:47:05.231Z,3.58
2022-09-24T13:49:35.525Z,3.55
2022-09-24T13:52:14.716Z,3.55
2022-09-24T13:54:52.442Z,3.20
2022-09-24T13:57:26.965Z,3.20
2022-09-24T14:00:16.343Z,3.15
2022-09-24T14:02:46.918Z,3.58
2022-09-24T14:05:18.698Z,3.25
2022-09-24T14:07:56.962Z,3.40
2022-09-24T14:10:26.332Z,3.50
2022-09-24T14:13:11.791Z,3.58
2022-09-24T14:15:39.997Z,3.83
2022-09-24T14:18:15.458Z,4.32
2022-09-24T14:20:43.618Z,4.00
2022-09-24T14:23:18.816Z,4.40
2022-09-24T14:25:49.183Z,3.92
2022-09-24T14:28:19.888Z,3.85
2022-09-24T14:30:52.896Z,3.22
2022-09-24T14:33:25.916Z,5.10
2022-09-24T14:35:57.091Z,4.70
2022-09-24T14:38:29.323Z,3.83
2022-09-24T14:41:01.614Z,3.92
2022-09-24T14:43:36.911Z,3.08
2022-09-24T14:46:09.409Z,3.35
2022-09-24T14:48:37.617Z,3.33
2022-09-24T14:51:05.567Z,3.92
2022-09-24T14:53:36.191Z,4.47
2022-09-24T14:56:20.263Z,3.47
2022-09-24T14:58:49.927Z,3.60
2022-09-24T15:01:20.898Z,3.65
2022-09-24T15:03:50.747Z,4.10
2022-09-24T15:06:21.984Z,3.60
2022-09-24T15:08:57.476Z,3.67
2022-09-24T15:11:28.062Z,3.80
2022-09-24T15:14:03.390Z,3.83
2022-09-24T15:16:34.186Z,3.83
2022-09-24T15:19:20.545Z,3.45
2022-09-24T15:21:49.762Z,4.05
2022-09-24T15:24:22.720Z,4.28
2022-09-24T15:27:02.645Z,4.13
2022-09-24T15:29:32.540Z,4.38
2022-09-24T15:32:00.618Z,4.07
2022-09-24T15:34:29.113Z,4.55
2022-09-24T15:36:59.766Z,4.05
2022-09-24T15:39:28.622Z,4.00
2022-09-24T15:41:56.523Z,3.83
2022-09-24T15:44:32.867Z,3.72
2022-09-24T15:47:03.254Z,3.40
2022-09-24T15:49:31.625Z,4.00
2022-09-24T15:52:04.083Z,3.97
2022-09-24T15:54:31.979Z,4.50
2022-09-24T15:57:01.304Z,4.07
2022-09-24T15:59:31.569Z,4.43
2022-09-24T16:02:03.688Z,4.30
2022-09-24T16:04:33.009Z,4.13
2022-09-24T16:07:00.901Z,4.75
2022-09-24T16:09:28.709Z,4.05
2022-09-24T16:11:57.635Z,4.80
2022-09-24T16:14:25.502Z,4.68
2022-09-24T16:16:53.625Z,4.30
2022-09-24T16:19:21.481Z,4.68
2022-09-24T16:21:52.103Z,4.38
2022-09-24T16:24:20.056Z,4.03
2022-09-24T16:26:47.874Z,4.00
2022-09-24T16:29:18.015Z,4.40
2022-09-24T16:31:46.863Z,4.32
2022-09-24T16:34:14.877Z,4.30
2022-09-24T16:36:42.710Z,4.38
2022-09-24T16:39:12.776Z,4.93
2022-09-24T16:41:41.123Z,3.95
2022-09-24T16:44:09.719Z,3.92
2022-09-24T16:46:37.619Z,4.43
2022-09-24T16:49:05.701Z,4.28
2022-09-24T16:51:33.570Z,5.22
2022-09-24T16:54:01.437Z,4.28
2022-09-24T16:56:30.620Z,4.90
2022-09-24T16:58:58.915Z,5.55
2022-09-24T17:01:26.929Z,4.72
2022-09-24T17:03:56.220Z,5.45
2022-09-24T17:06:26.319Z,5.05
2022-09-24T17:09:12.044Z,5.07
2022-09-24T17:11:42.088Z,5.28
2022-09-24T17:14:12.415Z,5.50
2022-09-24T17:16:40.915Z,5.40
2022-09-24T17:19:09.698Z,5.55
2022-09-24T17:21:39.097Z,5.05
2022-09-24T17:24:07.513Z,4.45
2022-09-24T17:26:35.690Z,5.25
2022-09-24T17:29:05.542Z,5.72
2022-09-24T17:31:33.961Z,6.00
2022-09-24T17:34:04.797Z,5.65
2022-09-24T17:36:34.519Z,5.72
2022-09-24T17:39:02.852Z,5.85
2022-09-24T17:41:31.140Z,6.85
2022-09-24T17:43:59.886Z,5.95
2022-09-24T17:46:32.212Z,6.72
2022-09-24T17:49:01.327Z,6.53
2022-09-24T17:51:32.401Z,6.32
2022-09-24T17:54:02.003Z,7.07
2022-09-24T17:56:32.421Z,6.40
2022-09-24T17:59:00.732Z,6.13
2022-09-24T18:01:33.613Z,7.55
2022-09-24T18:04:01.822Z,9.20
2022-09-24T18:06:33.163Z,9.15
2022-09-24T18:09:01.803Z,8.20
2022-09-24T18:11:31.643Z,8.65
2022-09-24T18:14:01.284Z,7.70
2022-09-24T18:16:32.437Z,8.25
2022-09-24T18:19:02.817Z,9.68
2022-09-24T18:21:31.957Z,8.77
2022-09-24T18:24:01.704Z,9.32
2022-09-24T18:26:32.513Z,8.00
2022-09-24T18:29:02.365Z,8.27
2022-09-24T18:31:32.756Z,8.30
2022-09-24T18:34:05.900Z,7.65
2022-09-24T18:36:35.630Z,8.90
2022-09-24T18:39:04.989Z,8.40
2022-09-24T18:41:32.883Z,7.68
2022-09-24T18:44:01.180Z,8.40
2022-09-24T18:46:32.055Z,8.23
2022-09-24T18:49:02.072Z,8.77
2022-09-24T18:51:31.828Z,9.38
2022-09-24T18:54:01.580Z,10.70
2022-09-24T18:56:29.712Z,10.48
2022-09-24T18:58:58.787Z,9.98
2022-09-24T19:01:27.031Z,11.70
2022-09-24T19:03:56.943Z,10.65
2022-09-24T19:06:24.893Z,10.70
2022-09-24T19:08:52.812Z,11.27
2022-09-24T19:11:21.575Z,9.88
2022-09-24T19:13:51.030Z,10.70
2022-09-24T19:16:20.500Z,10.38
2022-09-24T19:18:48.507Z,10.85
2022-09-24T19:21:17.827Z,10.07
2022-09-24T19:23:48.167Z,10.32
2022-09-24T19:26:18.042Z,8.52
2022-09-24T19:28:47.296Z,9.02
2022-09-24T19:31:16.484Z,8.88
2022-09-24T19:33:45.424Z,9.18
2022-09-24T19:36:13.942Z,7.68
2022-09-24T19:38:43.471Z,8.75
2022-09-24T19:41:14.192Z,8.60
2022-09-24T19:43:43.846Z,9.13
2022-09-24T19:46:14.668Z,9.07
2022-09-24T19:48:44.585Z,10.10
2022-09-24T19:51:16.537Z,9.10
2022-09-24T19:53:48.715Z,9.55
2022-09-24T19:56:17.165Z,8.55
2022-09-24T19:58:46.579Z,9.10
2022-09-24T20:01:17.326Z,8.68
2022-09-24T20:03:45.844Z,8.38
2022-09-24T20:06:15.667Z,8.95
2022-09-24T20:08:45.374Z,8.60
2022-09-24T20:11:17.159Z,8.32
2022-09-24T20:13:46.709Z,8.70
2022-09-24T20:16:16.378Z,7.95
2022-09-24T20:18:45.040Z,8.85
2022-09-24T20:21:13.602Z,9.20
2022-09-24T20:23:41.709Z,9.95
2022-09-24T20:26:30.674Z,9.52
2022-09-24T20:28:58.640Z,10.10
2022-09-24T20:31:26.574Z,10.25
2022-09-24T20:33:54.775Z,8.95
2022-09-24T20:36:24.831Z,9.15
2022-09-24T20:38:53.881Z,8.95
2022-09-24T20:41:25.496Z,9.88
2022-09-24T20:43:55.600Z,9.95
2022-09-24T20:46:25.390Z,10.45
2022-09-24T20:48:53.780Z,11.43
2022-09-24T20:51:22.697Z,10.30
2022-09-24T20:53:50.664Z,9.82
2022-09-24T20:56:19.327Z,10.30
2022-09-24T20:58:50.347Z,9.88
2022-09-24T21:01:18.719Z,10.82
2022-09-24T21:03:47.826Z,9.35
2022-09-24T21:06:16.638Z,9.38
2022-09-24T21:08:46.480Z,11.00
2022-09-24T21:11:16.401Z,10.65
2022-09-24T21:13:48.644Z,10.20
2022-09-24T21:16:19.808Z,10.30
2022-09-24T21:18:49.070Z,9.68
2022-09-24T21:21:19.082Z,9.23
2022-09-24T21:23:48.363Z,10.50
2022-09-24T21:26:18.522Z,10.52
2022-09-24T21:28:47.695Z,9.38
2022-09-24T21:31:18.871Z,10.13
2022-09-24T21:33:48.067Z,10.32
2022-09-24T21:36:19.444Z,10.60
2022-09-24T21:38:54.501Z,10.98
2022-09-24T21:41:22.748Z,10.07
2022-09-24T21:43:50.540Z,10.95
2022-09-24T21:46:20.171Z,11.20
2022-09-24T21:48:48.112Z,10.77
2022-09-24T21:51:21.839Z,10.95
2022-09-24T21:53:50.532Z,9.95
2022-09-24T21:56:18.889Z,10.73
2022-09-24T21:58:46.909Z,10.40
2022-09-24T22:01:17.458Z,10.82
2022-09-24T22:03:47.112Z,11.50
2022-09-24T22:06:15.140Z,11.13
2022-09-24T22:08:47.219Z,10.80
2022-09-24T22:11:15.889Z,11.98
2022-09-24T22:13:45.081Z,10.68
2022-09-24T22:16:13.087Z,10.77
2022-09-24T22:18:41.194Z,10.55
2022-09-24T22:21:12.270Z,11.23
2022-09-24T22:23:40.480Z,10.77
2022-09-24T22:26:09.849Z,12.50
2022-09-24T22:28:38.287Z,11.63
2022-09-24T22:31:08.647Z,11.60
2022-09-24T22:33:54.381Z,11.57
2022-09-24T22:36:24.017Z,12.20
2022-09-24T22:38:53.153Z,11.63
2022-09-24T22:41:21.497Z,11.88
2022-09-24T22:43:49.667Z,11.98
2022-09-24T22:46:17.853Z,12.70
2022-09-24T22:48:47.278Z,12.13
2022-09-24T22:51:15.935Z,11.93
2022-09-24T22:53:45.109Z,12.40
2022-09-24T22:56:14.720Z,13.32
2022-09-24T22:58:45.016Z,12.88
2022-09-24T23:01:15.231Z,12.60
2022-09-24T23:03:44.176Z,12.27
2022-09-24T23:06:12.826Z,12.55
2022-09-24T23:08:41.134Z,13.10
2022-09-24T23:11:12.218Z,13.43
2022-09-24T23:13:40.857Z,13.63
2022-09-24T23:16:11.774Z,13.32
2022-09-24T23:18:40.482Z,13.82
2022-09-24T23:21:10.751Z,14.32
2022-09-24T23:23:38.874Z,14.75
2022-09-24T23:26:11.969Z,13.80
2022-09-24T23:28:43.692Z,14.73
2022-09-24T23:31:13.622Z,13.20
2022-09-24T23:33:42.883Z,14.15
2022-09-24T23:36:12.993Z,13.63
2022-09-24T23:38:41.305Z,14.02
2022-09-24T23:41:10.200Z,13.82
2022-09-24T23:43:38.285Z,14.05
2022-09-24T23:46:08.186Z,13.90
2022-09-24T23:48:36.808Z,13.35
2022-09-24T23:51:05.393Z,14.40
2022-09-24T23:53:34.229Z,14.18
2022-09-24T23:56:03.276Z,14.20
2022-09-24T23:58:31.321Z,13.15
